sensor_id;sensor_type;location;lat;lon;timestamp;temperature;humidity
8736;DHT22;4404;49.308;12.178;2022-10-19T00:00:04;14.20;99.90
8736;DHT22;4404;49.308;12.178;2022-10-19T00:06:14;14.20;99.90
8736;DHT22;4404;49.308;12.178;2022-10-19T00:12:18;13.60;99.90
8736;DHT22;4404;49.308;12.178;2022-10-19T00:18:20;14.10;99.90
8736;DHT22;4404;49.308;12.178;2022-10-19T00:24:24;14.00;99.90
8736;DHT22;4404;49.308;12.178;2022-10-19T00:30:26;14.00;99.90
8736;DHT22;4404;49.308;12.178;2022-10-19T00:36:31;13.90;99.90
8736;DHT22;4404;49.308;12.178;2022-10-19T00:42:36;14.00;99.90
8736;DHT22;4404;49.308;12.178;2022-10-19T00:48:38;14.00;99.90
8736;DHT22;4404;49.308;12.178;2022-10-19T00:54:43;14.00;99.90
8736;DHT22;4404;49.308;12.178;2022-10-19T01:00:48;14.00;99.90
8736;DHT22;4404;49.308;12.178;2022-10-19T01:06:51;14.00;99.90
8736;DHT22;4404;49.308;12.178;2022-10-19T01:13:10;14.10;99.90
8736;DHT22;4404;49.308;12.178;2022-10-19T01:19:35;14.00;99.90
8736;DHT22;4404;49.308;12.178;2022-10-19T01:25:54;14.00;99.90
8736;DHT22;4404;49.308;12.178;2022-10-19T01:32:05;14.10;99.90
8736;DHT22;4404;49.308;12.178;2022-10-19T01:38:19;14.10;99.90
8736;DHT22;4404;49.308;12.178;2022-10-19T01:44:28;14.10;99.90
8736;DHT22;4404;49.308;12.178;2022-10-19T01:50:40;14.10;99.90
8736;DHT22;4404;49.308;12.178;2022-10-19T01:56:47;14.10;99.90
8736;DHT22;4404;49.308;12.178;2022-10-19T02:02:53;14.00;99.90
8736;DHT22;4404;49.308;12.178;2022-10-19T02:08:57;14.00;99.90
8736;DHT22;4404;49.308;12.178;2022-10-19T02:15:02;14.20;99.90
8736;DHT22;4404;49.308;12.178;2022-10-19T02:21:08;14.00;99.90
8736;DHT22;4404;49.308;12.178;2022-10-19T02:27:12;14.00;99.90
8736;DHT22;4404;49.308;12.178;2022-10-19T02:33:15;13.90;99.90
8736;DHT22;4404;49.308;12.178;2022-10-19T02:39:17;13.90;99.90
8736;DHT22;4404;49.308;12.178;2022-10-19T02:45:26;13.90;99.90
8736;DHT22;4404;49.308;12.178;2022-10-19T02:51:31;13.80;99.90
8736;DHT22;4404;49.308;12.178;2022-10-19T02:57:35;13.80;99.90
8736;DHT22;4404;49.308;12.178;2022-10-19T03:03:39;13.80;99.90
8736;DHT22;4404;49.308;12.178;2022-10-19T03:09:41;13.80;99.90
8736;DHT22;4404;49.308;12.178;2022-10-19T03:15:45;13.80;99.90
8736;DHT22;4404;49.308;12.178;2022-10-19T03:21:49;13.70;99.90
8736;DHT22;4404;49.308;12.178;2022-10-19T03:27:52;13.80;99.90
8736;DHT22;4404;49.308;12.178;2022-10-19T03:33:54;13.80;99.90
8736;DHT22;4404;49.308;12.178;2022-10-19T03:39:58;13.70;99.90
8736;DHT22;4404;49.308;12.178;2022-10-19T03:46:01;13.70;99.90
8736;DHT22;4404;49.308;12.178;2022-10-19T03:52:03;13.70;99.90
8736;DHT22;4404;49.308;12.178;2022-10-19T03:58:07;13.80;99.90
8736;DHT22;4404;49.308;12.178;2022-10-19T04:04:12;13.60;99.90
8736;DHT22;4404;49.308;12.178;2022-10-19T04:10:15;13.60;99.90
8736;DHT22;4404;49.308;12.178;2022-10-19T04:16:20;13.70;99.90
8736;DHT22;4404;49.308;12.178;2022-10-19T04:22:24;13.70;99.90
8736;DHT22;4404;49.308;12.178;2022-10-19T04:28:26;13.60;99.90
8736;DHT22;4404;49.308;12.178;2022-10-19T04:34:30;13.60;99.90
8736;DHT22;4404;49.308;12.178;2022-10-19T04:40:34;13.60;99.90
8736;DHT22;4404;49.308;12.178;2022-10-19T04:46:37;13.60;99.90
8736;DHT22;4404;49.308;12.178;2022-10-19T04:52:43;13.50;99.90
8736;DHT22;4404;49.308;12.178;2022-10-19T04:58:46;13.40;99.90
8736;DHT22;4404;49.308;12.178;2022-10-19T05:04:49;13.40;99.90
8736;DHT22;4404;49.308;12.178;2022-10-19T05:10:53;13.40;99.90
8736;DHT22;4404;49.308;12.178;2022-10-19T05:16:55;13.30;99.90
8736;DHT22;4404;49.308;12.178;2022-10-19T05:22:58;13.30;99.90
8736;DHT22;4404;49.308;12.178;2022-10-19T05:29:02;13.20;99.90
8736;DHT22;4404;49.308;12.178;2022-10-19T05:35:04;13.20;99.90
8736;DHT22;4404;49.308;12.178;2022-10-19T05:41:07;13.10;99.90
8736;DHT22;4404;49.308;12.178;2022-10-19T05:47:11;13.00;99.90
8736;DHT22;4404;49.308;12.178;2022-10-19T05:53:14;12.90;99.90
8736;DHT22;4404;49.308;12.178;2022-10-19T05:59:18;12.80;99.90
8736;DHT22;4404;49.308;12.178;2022-10-19T06:05:22;12.70;99.90
8736;DHT22;4404;49.308;12.178;2022-10-19T06:11:27;12.80;99.90
8736;DHT22;4404;49.308;12.178;2022-10-19T06:17:30;12.70;99.90
8736;DHT22;4404;49.308;12.178;2022-10-19T06:23:34;12.60;99.90
8736;DHT22;4404;49.308;12.178;2022-10-19T06:29:37;12.60;99.90
8736;DHT22;4404;49.308;12.178;2022-10-19T06:35:39;12.70;99.90
8736;DHT22;4404;49.308;12.178;2022-10-19T06:41:44;12.70;99.90
8736;DHT22;4404;49.308;12.178;2022-10-19T06:47:46;12.80;99.90
8736;DHT22;4404;49.308;12.178;2022-10-19T06:53:48;12.80;99.90
8736;DHT22;4404;49.308;12.178;2022-10-19T06:59:53;12.80;99.90
8736;DHT22;4404;49.308;12.178;2022-10-19T07:05:57;12.80;99.90
8736;DHT22;4404;49.308;12.178;2022-10-19T07:12:00;12.90;99.90
8736;DHT22;4404;49.308;12.178;2022-10-19T07:18:04;12.90;99.90
8736;DHT22;4404;49.308;12.178;2022-10-19T07:24:07;12.80;99.90
8736;DHT22;4404;49.308;12.178;2022-10-19T07:30:09;12.70;99.90
8736;DHT22;4404;49.308;12.178;2022-10-19T07:36:14;12.90;99.90
8736;DHT22;4404;49.308;12.178;2022-10-19T07:42:16;12.90;99.90
8736;DHT22;4404;49.308;12.178;2022-10-19T08:31:55;13.10;99.90
8736;DHT22;4404;49.308;12.178;2022-10-19T08:38:06;13.00;99.90
8736;DHT22;4404;49.308;12.178;2022-10-19T08:44:44;12.90;99.90
8736;DHT22;4404;49.308;12.178;2022-10-19T08:51:23;12.80;99.90
8736;DHT22;4404;49.308;12.178;2022-10-19T09:04:20;12.90;99.90
8736;DHT22;4404;49.308;12.178;2022-10-19T09:10:56;13.10;99.90
8736;DHT22;4404;49.308;12.178;2022-10-19T09:18:00;13.40;99.90
8736;DHT22;4404;49.308;12.178;2022-10-19T09:24:45;13.70;99.90
8736;DHT22;4404;49.308;12.178;2022-10-19T09:31:17;13.90;99.90
8736;DHT22;4404;49.308;12.178;2022-10-19T09:44:49;14.50;99.90
8736;DHT22;4404;49.308;12.178;2022-10-19T09:51:43;14.70;99.90
8736;DHT22;4404;49.308;12.178;2022-10-19T09:58:01;14.90;99.90
8736;DHT22;4404;49.308;12.178;2022-10-19T10:04:20;15.00;99.90
8736;DHT22;4404;49.308;12.178;2022-10-19T10:10:51;15.00;99.90
8736;DHT22;4404;49.308;12.178;2022-10-19T10:17:38;15.20;99.90
8736;DHT22;4404;49.308;12.178;2022-10-19T10:24:17;15.20;99.90
8736;DHT22;4404;49.308;12.178;2022-10-19T10:30:36;15.10;99.90
8736;DHT22;4404;49.308;12.178;2022-10-19T10:37:21;15.00;99.90
8736;DHT22;4404;49.308;12.178;2022-10-19T10:43:51;15.00;99.90
8736;DHT22;4404;49.308;12.178;2022-10-19T10:50:35;15.00;99.90
8736;DHT22;4404;49.308;12.178;2022-10-19T10:57:04;15.10;99.90
8736;DHT22;4404;49.308;12.178;2022-10-19T11:03:27;15.30;99.90
8736;DHT22;4404;49.308;12.178;2022-10-19T11:09:52;15.60;99.90
8736;DHT22;4404;49.308;12.178;2022-10-19T11:16:27;15.60;99.90
8736;DHT22;4404;49.308;12.178;2022-10-19T11:22:47;15.50;99.90
8736;DHT22;4404;49.308;12.178;2022-10-19T11:29:28;15.60;99.90
8736;DHT22;4404;49.308;12.178;2022-10-19T11:35:58;15.80;99.90
8736;DHT22;4404;49.308;12.178;2022-10-19T11:42:32;16.00;99.90
8736;DHT22;4404;49.308;12.178;2022-10-19T11:49:06;16.00;99.90
8736;DHT22;4404;49.308;12.178;2022-10-19T11:55:31;15.80;99.90
8736;DHT22;4404;49.308;12.178;2022-10-19T12:01:56;15.70;99.90
8736;DHT22;4404;49.308;12.178;2022-10-19T12:08:36;15.90;99.90
8736;DHT22;4404;49.308;12.178;2022-10-19T12:15:19;16.20;99.90
8736;DHT22;4404;49.308;12.178;2022-10-19T12:21:35;16.30;99.90
8736;DHT22;4404;49.308;12.178;2022-10-19T12:28:08;16.60;99.90
8736;DHT22;4404;49.308;12.178;2022-10-19T12:34:27;17.00;99.90
8736;DHT22;4404;49.308;12.178;2022-10-19T12:40:55;17.20;99.90
8736;DHT22;4404;49.308;12.178;2022-10-19T12:47:22;17.30;99.90
8736;DHT22;4404;49.308;12.178;2022-10-19T12:53:31;17.50;99.90
8736;DHT22;4404;49.308;12.178;2022-10-19T12:59:37;17.80;99.90
8736;DHT22;4404;49.308;12.178;2022-10-19T13:05:41;18.10;99.90
8736;DHT22;4404;49.308;12.178;2022-10-19T13:25:33;18.80;99.90
8736;DHT22;4404;49.308;12.178;2022-10-19T13:31:40;19.00;99.90
8736;DHT22;4404;49.308;12.178;2022-10-19T13:37:42;18.90;99.90
8736;DHT22;4404;49.308;12.178;2022-10-19T13:43:59;18.90;99.90
8736;DHT22;4404;49.308;12.178;2022-10-19T13:50:22;19.00;99.90
8736;DHT22;4404;49.308;12.178;2022-10-19T13:57:01;19.00;99.90
8736;DHT22;4404;49.308;12.178;2022-10-19T14:03:45;19.10;99.90
8736;DHT22;4404;49.308;12.178;2022-10-19T14:10:14;19.10;99.90
8736;DHT22;4404;49.308;12.178;2022-10-19T14:16:46;19.00;99.90
8736;DHT22;4404;49.308;12.178;2022-10-19T14:23:00;19.00;99.90
8736;DHT22;4404;49.308;12.178;2022-10-19T14:29:45;19.10;99.90
8736;DHT22;4404;49.308;12.178;2022-10-19T14:35:49;19.00;99.90
8736;DHT22;4404;49.308;12.178;2022-10-19T14:41:54;18.90;99.90
8736;DHT22;4404;49.308;12.178;2022-10-19T14:47:59;18.70;99.90
8736;DHT22;4404;49.308;12.178;2022-10-19T14:54:25;18.40;99.90
8736;DHT22;4404;49.308;12.178;2022-10-19T15:00:58;18.20;99.90
8736;DHT22;4404;49.308;12.178;2022-10-19T15:07:23;17.90;99.90
8736;DHT22;4404;49.308;12.178;2022-10-19T15:13:57;17.50;99.90
8736;DHT22;4404;49.308;12.178;2022-10-19T15:20:24;17.30;99.90
8736;DHT22;4404;49.308;12.178;2022-10-19T15:26:50;17.10;99.90
8736;DHT22;4404;49.308;12.178;2022-10-19T15:33:43;16.60;99.90
8736;DHT22;4404;49.308;12.178;2022-10-19T15:40:24;16.40;99.90
8736;DHT22;4404;49.308;12.178;2022-10-19T15:47:20;16.10;99.90
8736;DHT22;4404;49.308;12.178;2022-10-19T15:53:39;15.80;99.90
8736;DHT22;4404;49.308;12.178;2022-10-19T16:00:09;15.60;99.90
8736;DHT22;4404;49.308;12.178;2022-10-19T16:06:30;15.40;99.90
8736;DHT22;4404;49.308;12.178;2022-10-19T16:12:53;15.30;99.90
8736;DHT22;4404;49.308;12.178;2022-10-19T16:19:11;15.00;99.90
8736;DHT22;4404;49.308;12.178;2022-10-19T16:25:30;14.80;99.90
8736;DHT22;4404;49.308;12.178;2022-10-19T16:31:48;14.60;99.90
8736;DHT22;4404;49.308;12.178;2022-10-19T16:38:06;14.40;99.90
8736;DHT22;4404;49.308;12.178;2022-10-19T16:44:22;14.30;99.90
8736;DHT22;4404;49.308;12.178;2022-10-19T16:50:40;14.10;99.90
8736;DHT22;4404;49.308;12.178;2022-10-19T16:56:50;13.90;99.90
8736;DHT22;4404;49.308;12.178;2022-10-19T17:02:52;13.70;99.90
8736;DHT22;4404;49.308;12.178;2022-10-19T17:08:55;13.60;99.90
8736;DHT22;4404;49.308;12.178;2022-10-19T17:15:00;13.50;99.90
8736;DHT22;4404;49.308;12.178;2022-10-19T17:21:04;13.40;99.90
8736;DHT22;4404;49.308;12.178;2022-10-19T17:27:07;13.30;99.90
8736;DHT22;4404;49.308;12.178;2022-10-19T17:33:11;13.10;99.90
8736;DHT22;4404;49.308;12.178;2022-10-19T17:39:16;13.00;99.90
8736;DHT22;4404;49.308;12.178;2022-10-19T17:45:19;12.90;99.90
8736;DHT22;4404;49.308;12.178;2022-10-19T17:51:25;12.70;99.90
8736;DHT22;4404;49.308;12.178;2022-10-19T17:57:28;12.60;99.90
8736;DHT22;4404;49.308;12.178;2022-10-19T18:03:36;12.50;99.90
8736;DHT22;4404;49.308;12.178;2022-10-19T18:09:41;12.50;99.90
8736;DHT22;4404;49.308;12.178;2022-10-19T18:15:44;12.40;99.90
8736;DHT22;4404;49.308;12.178;2022-10-19T18:21:46;12.30;99.90
8736;DHT22;4404;49.308;12.178;2022-10-19T18:27:50;12.30;99.90
8736;DHT22;4404;49.308;12.178;2022-10-19T18:33:55;12.30;99.90
8736;DHT22;4404;49.308;12.178;2022-10-19T18:39:59;12.20;99.90
8736;DHT22;4404;49.308;12.178;2022-10-19T18:46:03;12.10;99.90
8736;DHT22;4404;49.308;12.178;2022-10-19T18:52:06;12.10;99.90
8736;DHT22;4404;49.308;12.178;2022-10-19T18:58:09;12.10;99.90
8736;DHT22;4404;49.308;12.178;2022-10-19T19:04:13;11.90;99.90
8736;DHT22;4404;49.308;12.178;2022-10-19T19:10:16;11.90;99.90
8736;DHT22;4404;49.308;12.178;2022-10-19T19:16:18;11.80;99.90
8736;DHT22;4404;49.308;12.178;2022-10-19T19:22:22;11.90;99.90
8736;DHT22;4404;49.308;12.178;2022-10-19T19:28:25;11.90;99.90
8736;DHT22;4404;49.308;12.178;2022-10-19T19:34:28;11.90;99.90
8736;DHT22;4404;49.308;12.178;2022-10-19T19:40:31;11.90;99.90
8736;DHT22;4404;49.308;12.178;2022-10-19T19:46:34;11.80;99.90
8736;DHT22;4404;49.308;12.178;2022-10-19T19:52:37;11.80;99.90
8736;DHT22;4404;49.308;12.178;2022-10-19T19:58:42;11.70;99.90
8736;DHT22;4404;49.308;12.178;2022-10-19T20:04:46;11.70;99.90
8736;DHT22;4404;49.308;12.178;2022-10-19T20:10:48;11.70;99.90
8736;DHT22;4404;49.308;12.178;2022-10-19T20:16:52;11.70;99.90
8736;DHT22;4404;49.308;12.178;2022-10-19T20:22:55;11.50;99.90
8736;DHT22;4404;49.308;12.178;2022-10-19T20:28:57;11.40;99.90
8736;DHT22;4404;49.308;12.178;2022-10-19T20:35:03;11.50;99.90
8736;DHT22;4404;49.308;12.178;2022-10-19T20:41:08;11.50;99.90
8736;DHT22;4404;49.308;12.178;2022-10-19T20:47:11;11.40;99.90
8736;DHT22;4404;49.308;12.178;2022-10-19T20:53:14;11.30;99.90
8736;DHT22;4404;49.308;12.178;2022-10-19T20:59:19;11.20;99.90
8736;DHT22;4404;49.308;12.178;2022-10-19T21:05:22;11.00;99.90
8736;DHT22;4404;49.308;12.178;2022-10-19T21:11:27;10.90;99.90
8736;DHT22;4404;49.308;12.178;2022-10-19T21:17:30;10.90;99.90
8736;DHT22;4404;49.308;12.178;2022-10-19T21:23:32;10.80;99.90
8736;DHT22;4404;49.308;12.178;2022-10-19T21:29:36;10.70;99.90
8736;DHT22;4404;49.308;12.178;2022-10-19T21:35:39;10.70;99.90
8736;DHT22;4404;49.308;12.178;2022-10-19T21:41:42;10.50;99.90
8736;DHT22;4404;49.308;12.178;2022-10-19T21:47:46;10.50;99.90
8736;DHT22;4404;49.308;12.178;2022-10-19T21:53:49;10.40;99.90
8736;DHT22;4404;49.308;12.178;2022-10-19T21:59:53;10.40;99.90
8736;DHT22;4404;49.308;12.178;2022-10-19T22:05:57;10.30;99.90
8736;DHT22;4404;49.308;12.178;2022-10-19T22:12:00;10.40;99.90
8736;DHT22;4404;49.308;12.178;2022-10-19T22:18:02;10.30;99.90
8736;DHT22;4404;49.308;12.178;2022-10-19T22:24:08;10.20;99.90
8736;DHT22;4404;49.308;12.178;2022-10-19T22:30:12;10.20;99.90
8736;DHT22;4404;49.308;12.178;2022-10-19T22:36:15;10.20;99.90
8736;DHT22;4404;49.308;12.178;2022-10-19T22:42:19;10.10;99.90
8736;DHT22;4404;49.308;12.178;2022-10-19T22:48:21;10.00;99.90
8736;DHT22;4404;49.308;12.178;2022-10-19T22:54:24;9.90;99.90
8736;DHT22;4404;49.308;12.178;2022-10-19T23:00:28;9.90;99.90
8736;DHT22;4404;49.308;12.178;2022-10-19T23:06:30;9.90;99.90
8736;DHT22;4404;49.308;12.178;2022-10-19T23:12:33;10.00;99.90
8736;DHT22;4404;49.308;12.178;2022-10-19T23:18:39;9.70;99.90
8736;DHT22;4404;49.308;12.178;2022-10-19T23:24:43;9.60;99.90
8736;DHT22;4404;49.308;12.178;2022-10-19T23:30:45;9.60;99.90
8736;DHT22;4404;49.308;12.178;2022-10-19T23:36:49;9.60;99.90
8736;DHT22;4404;49.308;12.178;2022-10-19T23:42:51;9.50;99.90
8736;DHT22;4404;49.308;12.178;2022-10-19T23:48:54;9.40;99.90
8736;DHT22;4404;49.308;12.178;2022-10-19T23:54:57;9.40;99.90
